Time;durP1;ratioP1;P1;durP2;ratioP2;P2;SDS_P1;SDS_P2;PMS_P1;PMS_P2;Temp;Humidity;BMP_temperature;BMP_pressure;BME280_temperature;BME280_humidity;BME280_pressure;Samples;Min_cycle;Max_cycle;Signal;HPM_P1;HPM_P2
2021/05/01 00:01:22;;;;;;;;;;;11.20;95.30;;;;;;5033329;28;20394;-62
2021/05/01 00:03:48;;;;;;;;;;;11.20;95.40;;;;;;5032905;28;19946;-61
2021/05/01 00:06:15;;;;;;;;;;;11.20;95.50;;;;;;5033457;28;19925;-61
2021/05/01 00:08:41;;;;;;;;;;;11.20;95.60;;;;;;5032193;28;19933;-61
2021/05/01 00:11:07;;;;;;;;;;;11.20;95.60;;;;;;5033835;28;19940;-61
2021/05/01 00:13:34;;;;;;;;;;;11.20;95.60;;;;;;5032842;28;19940;-62
2021/05/01 00:16:02;;;;;;;;;;;11.20;95.60;;;;;;5033505;28;19940;-62
2021/05/01 00:18:28;;;;;;;;;;;11.20;95.70;;;;;;5032977;28;20271;-61
2021/05/01 00:20:54;;;;;;;;;;;11.20;95.70;;;;;;5033374;28;19933;-62
2021/05/01 00:23:21;;;;;;;;;;;11.20;95.70;;;;;;5032867;28;20271;-61
2021/05/01 00:25:47;;;;;;;;;;;11.10;95.70;;;;;;5033031;28;19936;-62
2021/05/01 00:28:13;;;;;;;;;;;11.10;95.70;;;;;;5033373;28;19936;-61
2021/05/01 00:30:40;;;;;;;;;;;11.10;95.90;;;;;;5032501;28;19925;-61
2021/05/01 00:33:07;;;;;;;;;;;11.00;96.10;;;;;;5033048;28;20279;-62
2021/05/01 00:35:34;;;;;;;;;;;11.10;96.30;;;;;;5032069;28;19929;-61
2021/05/01 00:38:00;;;;;;;;;;;11.10;96.30;;;;;;5031249;28;19960;-62
2021/05/01 00:40:27;;;;;;;;;;;11.10;96.30;;;;;;5032422;28;19925;-62
2021/05/01 00:42:53;;;;;;;;;;;11.10;96.30;;;;;;5027987;28;20362;-62
2021/05/01 00:45:20;;;;;;;;;;;11.10;96.20;;;;;;5032463;28;19931;-61
2021/05/01 00:47:46;;;;;;;;;;;11.20;96.20;;;;;;5032729;28;20318;-62
2021/05/01 00:50:14;;;;;;;;;;;11.20;96.20;;;;;;5032571;28;19925;-62
2021/05/01 00:52:40;;;;;;;;;;;11.20;96.20;;;;;;5032549;28;19936;-61
2021/05/01 00:55:08;;;;;;;;;;;11.10;96.30;;;;;;5031082;28;19925;-61
2021/05/01 00:57:36;;;;;;;;;;;11.10;96.30;;;;;;5032246;28;19951;-61
2021/05/01 01:00:02;;;;;;;;;;;11.10;96.30;;;;;;5032740;28;19999;-61
2021/05/01 01:02:29;;;;;;;;;;;11.10;96.40;;;;;;5032591;28;19925;-61
2021/05/01 01:04:56;;;;;;;;;;;11.10;96.40;;;;;;5032579;28;19925;-61
2021/05/01 01:07:27;;;;;;;;;;;11.10;96.50;;;;;;5032035;28;19925;-62
2021/05/01 01:09:54;;;;;;;;;;;11.10;96.50;;;;;;5032685;28;19932;-61
2021/05/01 01:12:20;;;;;;;;;;;11.10;96.50;;;;;;5028378;28;19995;-62
2021/05/01 01:14:46;;;;;;;;;;;11.10;96.40;;;;;;5032081;28;19941;-61
2021/05/01 01:17:13;;;;;;;;;;;11.20;96.50;;;;;;5032745;28;19925;-61
2021/05/01 01:19:39;;;;;;;;;;;11.10;96.50;;;;;;5032232;28;19933;-61
2021/05/01 01:22:12;;;;;;;;;;;11.10;97.00;;;;;;5032533;28;19991;-62
2021/05/01 01:24:38;;;;;;;;;;;11.20;96.70;;;;;;5032234;28;20129;-62
2021/05/01 01:27:05;;;;;;;;;;;11.20;96.60;;;;;;5032293;28;20330;-62
2021/05/01 01:29:31;;;;;;;;;;;11.20;96.60;;;;;;5032254;28;20271;-62
2021/05/01 01:31:57;;;;;;;;;;;11.20;96.60;;;;;;5024515;28;19929;-62
2021/05/01 01:34:24;;;;;;;;;;;11.20;96.50;;;;;;5031723;28;20263;-62
2021/05/01 01:36:50;;;;;;;;;;;11.20;96.50;;;;;;5028099;28;19932;-62
2021/05/01 01:39:17;;;;;;;;;;;11.20;96.50;;;;;;5032170;28;19925;-62
2021/05/01 01:41:44;;;;;;;;;;;11.20;96.50;;;;;;5032000;28;19925;-62
2021/05/01 01:44:10;;;;;;;;;;;11.20;96.50;;;;;;5032536;28;19925;-62
2021/05/01 01:46:36;;;;;;;;;;;11.20;96.40;;;;;;5031736;28;19929;-62
2021/05/01 01:49:03;;;;;;;;;;;11.20;96.50;;;;;;5031783;28;19925;-61
2021/05/01 01:51:29;;;;;;;;;;;11.10;96.50;;;;;;5034363;28;19952;-61
2021/05/01 01:53:55;;;;;;;;;;;11.10;96.50;;;;;;5034878;28;19987;-61
2021/05/01 01:56:24;;;;;;;;;;;11.10;96.60;;;;;;5034449;28;20363;-62
2021/05/01 01:58:50;;;;;;;;;;;11.10;96.60;;;;;;5027855;28;19925;-62
2021/05/01 02:01:17;;;;;;;;;;;11.10;96.70;;;;;;5036038;28;20010;-61
2021/05/01 02:03:43;;;;;;;;;;;11.10;96.70;;;;;;5035879;28;19936;-62
2021/05/01 02:06:09;;;;;;;;;;;11.10;96.70;;;;;;5035921;28;19925;-62
2021/05/01 02:08:36;;;;;;;;;;;11.10;96.70;;;;;;5035623;28;19936;-62
2021/05/01 02:11:02;;;;;;;;;;;11.10;97.20;;;;;;5036116;28;19926;-62
2021/05/01 02:13:30;;;;;;;;;;;11.00;96.80;;;;;;5035539;28;19936;-61
2021/05/01 02:15:56;;;;;;;;;;;11.10;96.90;;;;;;5035849;28;19925;-61
2021/05/01 02:18:22;;;;;;;;;;;11.10;96.80;;;;;;5035841;28;19925;-62
2021/05/01 02:20:49;;;;;;;;;;;11.10;96.80;;;;;;5035466;28;20373;-62
2021/05/01 02:23:15;;;;;;;;;;;11.10;96.90;;;;;;5035690;28;19952;-62
2021/05/01 02:25:41;;;;;;;;;;;11.00;96.90;;;;;;5034877;28;19925;-62
2021/05/01 02:28:08;;;;;;;;;;;11.10;96.90;;;;;;5035504;28;20326;-61
2021/05/01 02:30:35;;;;;;;;;;;11.10;97.00;;;;;;5000257;28;19929;-61
2021/05/01 02:33:01;;;;;;;;;;;11.10;97.00;;;;;;5002173;28;20316;-62
2021/05/01 02:35:29;;;;;;;;;;;11.00;97.00;;;;;;5015662;28;19940;-62
2021/05/01 02:37:55;;;;;;;;;;;11.00;97.30;;;;;;5031750;28;19926;-62
2021/05/01 02:40:23;;;;;;;;;;;11.00;97.00;;;;;;5016797;28;19926;-61
2021/05/01 02:42:50;;;;;;;;;;;11.00;97.00;;;;;;5017767;28;19936;-61
2021/05/01 02:45:17;;;;;;;;;;;11.10;97.00;;;;;;5030662;28;20386;-62
2021/05/01 02:47:44;;;;;;;;;;;11.10;97.00;;;;;;5019368;28;19929;-61
2021/05/01 02:50:12;;;;;;;;;;;11.00;97.30;;;;;;5031774;28;20371;-62
2021/05/01 02:52:38;;;;;;;;;;;11.10;96.90;;;;;;5034751;28;19929;-62
2021/05/01 02:55:05;;;;;;;;;;;11.10;96.90;;;;;;5033608;28;19925;-63
2021/05/01 02:57:32;;;;;;;;;;;11.00;97.00;;;;;;5034413;28;19925;-62
2021/05/01 03:00:02;;;;;;;;;;;11.10;97.00;;;;;;5035003;28;20012;-61
2021/05/01 03:02:28;;;;;;;;;;;11.10;97.00;;;;;;5034350;28;19940;-62
2021/05/01 03:04:56;;;;;;;;;;;11.10;96.90;;;;;;5035252;28;19944;-62
2021/05/01 03:07:22;;;;;;;;;;;11.10;96.80;;;;;;5034507;28;19929;-62
2021/05/01 03:09:49;;;;;;;;;;;11.10;96.80;;;;;;5034774;28;19925;-61
2021/05/01 03:12:15;;;;;;;;;;;11.00;96.80;;;;;;5034720;28;19925;-61
2021/05/01 03:14:41;;;;;;;;;;;11.10;96.90;;;;;;5034286;28;19948;-62
2021/05/01 03:17:08;;;;;;;;;;;11.00;96.90;;;;;;5034590;28;19936;-62
2021/05/01 03:19:34;;;;;;;;;;;11.00;97.30;;;;;;5034359;28;20318;-61
2021/05/01 03:22:01;;;;;;;;;;;11.10;97.00;;;;;;5034708;28;19936;-62
2021/05/01 03:24:28;;;;;;;;;;;11.00;96.90;;;;;;5034589;28;19940;-62
2021/05/01 03:26:54;;;;;;;;;;;11.10;97.00;;;;;;5034508;28;20534;-62
2021/05/01 03:29:20;;;;;;;;;;;11.10;97.00;;;;;;5032977;28;19925;-62
2021/05/01 03:31:47;;;;;;;;;;;11.10;97.30;;;;;;5032561;28;19925;-62
2021/05/01 03:34:13;;;;;;;;;;;11.10;97.00;;;;;;5030309;28;19933;-62
2021/05/01 03:36:39;;;;;;;;;;;11.00;96.80;;;;;;5030369;28;19940;-61
2021/05/01 03:39:07;;;;;;;;;;;11.10;96.90;;;;;;5030713;28;19987;-61
2021/05/01 03:41:33;;;;;;;;;;;11.00;96.80;;;;;;5030269;28;19933;-62
2021/05/01 03:43:59;;;;;;;;;;;11.00;96.80;;;;;;5031922;28;20363;-61
2021/05/01 03:46:26;;;;;;;;;;;11.00;96.80;;;;;;5031378;28;20356;-62
2021/05/01 03:48:53;;;;;;;;;;;11.00;96.90;;;;;;5031368;28;20360;-62
2021/05/01 03:51:19;;;;;;;;;;;11.00;97.30;;;;;;5031328;28;19979;-62
2021/05/01 03:53:45;;;;;;;;;;;11.00;97.10;;;;;;5031710;28;19933;-62
2021/05/01 03:56:13;;;;;;;;;;;11.00;97.00;;;;;;5031945;28;19925;-62
2021/05/01 03:58:39;;;;;;;;;;;11.00;96.90;;;;;;5030596;28;19936;-62
2021/05/01 04:01:05;;;;;;;;;;;11.00;97.00;;;;;;5032702;28;19932;-62
2021/05/01 04:03:32;;;;;;;;;;;11.00;97.00;;;;;;5034091;28;20264;-61
2021/05/01 04:05:58;;;;;;;;;;;11.00;97.10;;;;;;5034188;28;20638;-61
2021/05/01 04:08:24;;;;;;;;;;;11.00;97.50;;;;;;5033707;28;19925;-61
2021/05/01 04:10:51;;;;;;;;;;;11.00;97.20;;;;;;5033531;28;19925;-62
2021/05/01 04:13:18;;;;;;;;;;;11.00;97.00;;;;;;5033351;28;19925;-62
2021/05/01 04:15:44;;;;;;;;;;;11.00;97.10;;;;;;5033759;28;19929;-62
2021/05/01 04:18:12;;;;;;;;;;;11.00;97.10;;;;;;5033595;28;19932;-61
2021/05/01 04:20:38;;;;;;;;;;;10.90;97.20;;;;;;5033982;28;19929;-61
2021/05/01 04:23:04;;;;;;;;;;;11.00;97.30;;;;;;5034019;28;20187;-61
2021/05/01 04:25:31;;;;;;;;;;;11.00;97.20;;;;;;5033997;28;19925;-61
2021/05/01 04:27:57;;;;;;;;;;;11.00;97.20;;;;;;5033504;28;19980;-60
2021/05/01 04:30:24;;;;;;;;;;;11.00;97.60;;;;;;5033937;28;19940;-61
2021/05/01 04:32:50;;;;;;;;;;;11.00;97.10;;;;;;5033458;28;19933;-61
2021/05/01 04:35:17;;;;;;;;;;;11.00;97.10;;;;;;5033780;28;19925;-61
2021/05/01 04:37:43;;;;;;;;;;;11.00;97.10;;;;;;5033274;28;19936;-61
2021/05/01 04:40:10;;;;;;;;;;;11.00;97.10;;;;;;5033663;28;19987;-61
2021/05/01 04:42:41;;;;;;;;;;;11.00;97.10;;;;;;5032696;28;19925;-61
2021/05/01 04:45:08;;;;;;;;;;;11.00;97.10;;;;;;5033732;28;19990;-62
2021/05/01 04:47:35;;;;;;;;;;;11.10;97.20;;;;;;5020297;28;20291;-62
2021/05/01 04:50:01;;;;;;;;;;;11.10;97.10;;;;;;5027568;28;20701;-62
2021/05/01 04:52:28;;;;;;;;;;;11.10;97.00;;;;;;5033451;28;20307;-62
2021/05/01 04:54:54;;;;;;;;;;;11.10;97.00;;;;;;5014679;28;19926;-62
2021/05/01 04:57:21;;;;;;;;;;;11.10;97.10;;;;;;5027434;28;19925;-61
2021/05/01 04:59:47;;;;;;;;;;;11.10;97.00;;;;;;5016239;28;19925;-62
2021/05/01 05:02:13;;;;;;;;;;;11.10;97.10;;;;;;5033191;28;19968;-61
2021/05/01 05:04:41;;;;;;;;;;;11.20;97.20;;;;;;5016117;28;20368;-62
2021/05/01 05:07:07;;;;;;;;;;;11.10;97.10;;;;;;5000318;28;19925;-61
2021/05/01 05:09:33;;;;;;;;;;;11.10;97.00;;;;;;5021020;28;19937;-61
2021/05/01 05:11:59;;;;;;;;;;;11.10;97.10;;;;;;5027310;28;19936;-61
2021/05/01 05:14:26;;;;;;;;;;;11.00;97.10;;;;;;5019039;28;20068;-61
2021/05/01 05:16:52;;;;;;;;;;;11.10;97.20;;;;;;5031168;28;19925;-62
2021/05/01 05:19:18;;;;;;;;;;;11.10;97.20;;;;;;5007965;28;20352;-62
2021/05/01 05:21:45;;;;;;;;;;;11.10;97.20;;;;;;5019627;28;19925;-61
2021/05/01 05:24:12;;;;;;;;;;;11.20;97.30;;;;;;5012976;28;19925;-61
2021/05/01 05:26:39;;;;;;;;;;;11.20;97.30;;;;;;5021301;28;20310;-61
2021/05/01 05:29:05;;;;;;;;;;;11.20;97.30;;;;;;5007916;28;19957;-61
2021/05/01 05:31:31;;;;;;;;;;;11.10;97.30;;;;;;5019650;28;19925;-61
2021/05/01 05:33:58;;;;;;;;;;;11.20;97.40;;;;;;5027294;28;19937;-61
2021/05/01 05:36:24;;;;;;;;;;;11.20;97.50;;;;;;5010410;28;20356;-61
2021/05/01 05:38:51;;;;;;;;;;;11.20;97.50;;;;;;5029852;28;20337;-61
2021/05/01 05:41:17;;;;;;;;;;;11.20;97.40;;;;;;5007551;28;19986;-62
2021/05/01 05:43:44;;;;;;;;;;;11.30;97.50;;;;;;5011877;28;19936;-62
2021/05/01 05:46:14;;;;;;;;;;;11.30;97.60;;;;;;5028660;28;19925;-62
2021/05/01 05:48:41;;;;;;;;;;;11.30;97.50;;;;;;5016429;28;19933;-62
2021/05/01 05:51:07;;;;;;;;;;;11.30;97.50;;;;;;4999594;28;19925;-62
2021/05/01 05:53:33;;;;;;;;;;;11.30;97.50;;;;;;4993251;28;19930;-62
2021/05/01 05:56:01;;;;;;;;;;;11.30;97.50;;;;;;5024574;28;19928;-61
2021/05/01 05:58:27;;;;;;;;;;;11.30;97.40;;;;;;5032505;28;19929;-61
2021/05/01 06:00:53;;;;;;;;;;;11.40;97.50;;;;;;5023510;28;19925;-61
2021/05/01 06:03:21;;;;;;;;;;;11.40;97.50;;;;;;5032629;28;19925;-60
2021/05/01 06:05:49;;;;;;;;;;;11.40;97.60;;;;;;5021217;28;20407;-60
2021/05/01 06:08:17;;;;;;;;;;;11.40;97.60;;;;;;5032505;28;19969;-62
2021/05/01 06:10:44;;;;;;;;;;;11.40;97.40;;;;;;5022484;28;20359;-62
2021/05/01 06:13:11;;;;;;;;;;;11.50;97.50;;;;;;5020560;28;19932;-62
2021/05/01 06:15:38;;;;;;;;;;;11.50;97.40;;;;;;5019845;28;20063;-62
2021/05/01 06:18:05;;;;;;;;;;;11.50;97.40;;;;;;5019353;28;19925;-61
2021/05/01 06:20:33;;;;;;;;;;;11.50;97.30;;;;;;5026877;28;19936;-61
2021/05/01 06:23:00;;;;;;;;;;;11.50;97.30;;;;;;5014094;28;19937;-61
2021/05/01 06:25:26;;;;;;;;;;;11.60;97.40;;;;;;5012623;28;19930;-60
2021/05/01 06:27:53;;;;;;;;;;;11.60;97.30;;;;;;5029438;28;19979;-61
2021/05/01 06:30:21;;;;;;;;;;;11.60;97.30;;;;;;5031931;28;19925;-61
2021/05/01 06:32:47;;;;;;;;;;;11.60;97.30;;;;;;5007378;28;19945;-62
2021/05/01 06:35:14;;;;;;;;;;;11.70;97.30;;;;;;5027218;28;19925;-61
2021/05/01 06:37:40;;;;;;;;;;;11.70;97.30;;;;;;5036023;28;19991;-61
2021/05/01 06:40:09;;;;;;;;;;;11.70;97.20;;;;;;5035285;28;19929;-62
2021/05/01 06:42:37;;;;;;;;;;;11.80;97.20;;;;;;5035871;28;19928;-62
2021/05/01 06:45:05;;;;;;;;;;;11.70;97.10;;;;;;5033347;28;19965;-62
2021/05/01 06:47:32;;;;;;;;;;;11.70;97.10;;;;;;5010774;28;19940;-61
2021/05/01 06:50:04;;;;;;;;;;;11.80;97.50;;;;;;5016202;28;19960;-61
2021/05/01 06:52:31;;;;;;;;;;;11.80;97.10;;;;;;5035851;28;19925;-61
2021/05/01 06:55:00;;;;;;;;;;;11.80;97.20;;;;;;5005556;28;19925;-62
2021/05/01 06:57:27;;;;;;;;;;;11.80;97.10;;;;;;5035459;28;19925;-62
2021/05/01 06:59:55;;;;;;;;;;;11.80;97.00;;;;;;5014041;28;19926;-62
2021/05/01 07:02:25;;;;;;;;;;;11.90;97.00;;;;;;5006742;28;20356;-62
2021/05/01 07:04:53;;;;;;;;;;;11.90;97.10;;;;;;5031932;28;19925;-61
2021/05/01 07:07:21;;;;;;;;;;;12.00;97.10;;;;;;5035193;28;19925;-61
2021/05/01 07:09:48;;;;;;;;;;;11.90;96.90;;;;;;5035056;28;19983;-61
2021/05/01 07:12:14;;;;;;;;;;;11.90;96.70;;;;;;5035101;28;19925;-62
2021/05/01 07:14:41;;;;;;;;;;;11.90;96.60;;;;;;5034969;28;19925;-61
2021/05/01 07:17:07;;;;;;;;;;;11.90;96.70;;;;;;5034801;28;20067;-62
2021/05/01 07:19:34;;;;;;;;;;;12.00;96.80;;;;;;5035103;28;19925;-61
2021/05/01 07:22:02;;;;;;;;;;;12.00;96.80;;;;;;5034778;28;19925;-61
2021/05/01 07:24:28;;;;;;;;;;;12.00;96.70;;;;;;5031785;28;19926;-61
2021/05/01 07:26:54;;;;;;;;;;;12.00;96.60;;;;;;5026554;28;19936;-61
2021/05/01 07:29:21;;;;;;;;;;;12.00;96.40;;;;;;5033206;28;20240;-61
2021/05/01 07:31:49;;;;;;;;;;;12.00;96.40;;;;;;5026911;28;19929;-62
2021/05/01 07:34:21;;;;;;;;;;;11.90;96.40;;;;;;5033909;28;20257;-63
2021/05/01 07:36:51;;;;;;;;;;;12.00;96.50;;;;;;5018868;28;20245;-62
2021/05/01 07:39:20;;;;;;;;;;;12.00;96.50;;;;;;5026072;28;19995;-61
2021/05/01 07:41:55;;;;;;;;;;;12.00;96.40;;;;;;5023665;28;19926;-62
2021/05/01 07:44:23;;;;;;;;;;;12.00;96.50;;;;;;5033634;28;19925;-62
2021/05/01 07:46:50;;;;;;;;;;;12.00;96.40;;;;;;5033829;28;19937;-62
2021/05/01 07:49:16;;;;;;;;;;;12.00;96.40;;;;;;5027859;28;20264;-61
2021/05/01 07:51:43;;;;;;;;;;;12.00;96.80;;;;;;5027276;28;19936;-61
2021/05/01 07:54:10;;;;;;;;;;;12.00;96.50;;;;;;5033833;28;20366;-60
2021/05/01 07:56:37;;;;;;;;;;;12.00;96.50;;;;;;5020812;28;20004;-61
2021/05/01 07:59:03;;;;;;;;;;;12.00;96.50;;;;;;5013943;28;19936;-61
2021/05/01 08:01:30;;;;;;;;;;;12.00;96.50;;;;;;5014077;28;19929;-61
2021/05/01 08:03:56;;;;;;;;;;;12.10;96.50;;;;;;5030905;28;19932;-62
2021/05/01 08:06:23;;;;;;;;;;;12.10;96.50;;;;;;5033977;28;20655;-61
2021/05/01 08:08:49;;;;;;;;;;;12.10;96.60;;;;;;5034131;28;19936;-61
2021/05/01 08:11:16;;;;;;;;;;;12.10;96.90;;;;;;5033727;28;19937;-61
2021/05/01 08:13:43;;;;;;;;;;;12.20;97.00;;;;;;5033834;28;19983;-61
2021/05/01 08:16:09;;;;;;;;;;;12.20;96.80;;;;;;5033651;28;19929;-61
2021/05/01 08:18:36;;;;;;;;;;;12.30;96.70;;;;;;5014396;28;19933;-62
2021/05/01 08:21:04;;;;;;;;;;;12.30;96.60;;;;;;5026194;28;19975;-61
2021/05/01 08:23:33;;;;;;;;;;;12.30;96.50;;;;;;5021802;28;19983;-62
2021/05/01 08:26:00;;;;;;;;;;;12.30;96.20;;;;;;5033581;28;19925;-61
2021/05/01 08:28:26;;;;;;;;;;;12.40;96.30;;;;;;5033796;28;19925;-61
2021/05/01 08:30:53;;;;;;;;;;;12.40;96.20;;;;;;5033685;28;19983;-61
2021/05/01 08:33:20;;;;;;;;;;;12.50;96.20;;;;;;5033490;28;20375;-61
2021/05/01 08:35:47;;;;;;;;;;;12.50;96.10;;;;;;5033884;28;19929;-62
2021/05/01 08:38:13;;;;;;;;;;;12.60;96.10;;;;;;5033127;28;20359;-62
2021/05/01 08:40:40;;;;;;;;;;;12.70;96.00;;;;;;5033373;28;20351;-62
2021/05/01 08:43:06;;;;;;;;;;;12.80;96.00;;;;;;5033172;28;20363;-62
2021/05/01 08:45:33;;;;;;;;;;;12.90;95.90;;;;;;5033369;28;19937;-61
2021/05/01 08:48:01;;;;;;;;;;;13.00;95.40;;;;;;5033552;28;19925;-62
2021/05/01 08:50:31;;;;;;;;;;;13.10;95.20;;;;;;5028217;28;20651;-62
2021/05/01 08:52:58;;;;;;;;;;;13.10;94.90;;;;;;5033632;28;19979;-62
2021/05/01 08:55:25;;;;;;;;;;;13.30;94.70;;;;;;5032807;28;20317;-60
2021/05/01 08:57:51;;;;;;;;;;;13.30;94.40;;;;;;5033035;28;19937;-61
2021/05/01 09:00:18;;;;;;;;;;;13.50;94.50;;;;;;5025171;28;19932;-61
2021/05/01 09:02:45;;;;;;;;;;;13.50;93.80;;;;;;5033536;28;19932;-61
2021/05/01 09:05:12;;;;;;;;;;;13.60;93.80;;;;;;5032664;28;20268;-61
2021/05/01 09:07:40;;;;;;;;;;;13.60;93.70;;;;;;5033328;28;19976;-62
2021/05/01 09:10:07;;;;;;;;;;;13.60;93.50;;;;;;5032629;28;19995;-61
2021/05/01 09:12:37;;;;;;;;;;;13.70;93.30;;;;;;5033248;28;19925;-61
2021/05/01 09:15:05;;;;;;;;;;;13.80;93.10;;;;;;5020062;28;19925;-61
2021/05/01 09:17:32;;;;;;;;;;;13.90;92.90;;;;;;5032810;28;19935;-61
2021/05/01 09:20:02;;;;;;;;;;;14.00;92.70;;;;;;5033038;28;19925;-62
2021/05/01 09:22:29;;;;;;;;;;;14.10;92.50;;;;;;5032877;28;20351;-63
2021/05/01 09:25:05;;;;;;;;;;;14.20;92.20;;;;;;5019598;28;19925;-62
2021/05/01 09:27:31;;;;;;;;;;;14.30;92.20;;;;;;5032513;28;19995;-61
2021/05/01 09:30:10;;;;;;;;;;;14.40;91.90;;;;;;5033091;28;19929;-61
2021/05/01 09:32:40;;;;;;;;;;;14.50;91.90;;;;;;5032725;28;19933;-61
2021/05/01 09:35:07;;;;;;;;;;;14.50;91.70;;;;;;5033024;28;20347;-62
2021/05/01 09:37:35;;;;;;;;;;;14.60;91.70;;;;;;5032059;28;20284;-61
2021/05/01 09:40:01;;;;;;;;;;;14.70;91.40;;;;;;5032890;28;19933;-61
2021/05/01 09:42:29;;;;;;;;;;;14.80;91.10;;;;;;5032273;28;19929;-62
2021/05/01 09:45:06;;;;;;;;;;;14.90;91.10;;;;;;5032842;28;19926;-61
2021/05/01 09:47:33;;;;;;;;;;;15.00;90.90;;;;;;5032459;28;20393;-60
2021/05/01 09:49:59;;;;;;;;;;;15.00;90.60;;;;;;5027263;28;19932;-62
2021/05/01 09:52:26;;;;;;;;;;;15.00;90.20;;;;;;5032278;28;19936;-62
2021/05/01 09:54:53;;;;;;;;;;;15.10;90.10;;;;;;5032674;28;19943;-62
2021/05/01 09:57:20;;;;;;;;;;;15.10;88.90;;;;;;5032033;28;20288;-62
2021/05/01 09:59:47;;;;;;;;;;;15.10;88.20;;;;;;5032521;28;19925;-62
2021/05/01 10:02:14;;;;;;;;;;;15.10;88.20;;;;;;5032545;28;19936;-61
2021/05/01 10:04:41;;;;;;;;;;;15.10;87.60;;;;;;5032491;28;20382;-61
2021/05/01 10:07:08;;;;;;;;;;;15.00;87.60;;;;;;5032594;28;19940;-62
2021/05/01 10:09:35;;;;;;;;;;;15.00;87.60;;;;;;5032442;28;19947;-61
2021/05/01 10:12:04;;;;;;;;;;;15.00;87.90;;;;;;5035575;28;19936;-62
2021/05/01 10:14:38;;;;;;;;;;;14.90;88.10;;;;;;5036188;28;19952;-62
2021/05/01 10:17:05;;;;;;;;;;;15.00;88.40;;;;;;5023755;28;19995;-61
2021/05/01 10:19:45;;;;;;;;;;;15.00;88.50;;;;;;5035800;28;19929;-62
2021/05/01 10:22:40;;;;;;;;;;;15.00;88.60;;;;;;5036199;28;19925;-61
2021/05/01 10:25:07;;;;;;;;;;;15.00;88.20;;;;;;4997486;28;19925;-61
2021/05/01 10:27:44;;;;;;;;;;;15.00;87.60;;;;;;5036159;28;19936;-61
2021/05/01 10:30:27;;;;;;;;;;;15.00;86.70;;;;;;5022992;28;19936;-61
2021/05/01 10:32:54;;;;;;;;;;;15.00;85.70;;;;;;5035963;28;20330;-61
2021/05/01 10:35:22;;;;;;;;;;;15.00;85.80;;;;;;5035649;28;19990;-61
2021/05/01 10:37:51;;;;;;;;;;;15.00;86.00;;;;;;5035768;28;19925;-61
2021/05/01 10:40:18;;;;;;;;;;;15.10;85.90;;;;;;5035640;28;19979;-61
2021/05/01 10:42:45;;;;;;;;;;;15.10;85.30;;;;;;5035913;28;20344;-61
2021/05/01 10:45:12;;;;;;;;;;;15.00;84.80;;;;;;5035532;28;19925;-61
2021/05/01 10:47:38;;;;;;;;;;;15.00;84.70;;;;;;5035383;28;19925;-61
2021/05/01 10:50:18;;;;;;;;;;;15.00;84.90;;;;;;5027822;28;19952;-61
2021/05/01 10:52:44;;;;;;;;;;;15.00;85.00;;;;;;5035487;28;19925;-61
2021/05/01 10:55:11;;;;;;;;;;;15.00;84.70;;;;;;5035356;28;19929;-62
2021/05/01 10:57:39;;;;;;;;;;;15.00;84.60;;;;;;5034155;28;19929;-61
2021/05/01 11:00:08;;;;;;;;;;;15.00;84.90;;;;;;5028577;28;19925;-62
2021/05/01 11:02:36;;;;;;;;;;;14.90;84.90;;;;;;5035972;28;19925;-62
2021/05/01 11:05:05;;;;;;;;;;;14.90;84.80;;;;;;5034737;28;19925;-62
2021/05/01 11:07:51;;;;;;;;;;;14.90;84.70;;;;;;5035501;28;20245;-62
2021/05/01 11:10:17;;;;;;;;;;;14.90;84.80;;;;;;5034655;28;19925;-62
2021/05/01 11:12:49;;;;;;;;;;;14.90;85.00;;;;;;5035388;28;19925;-62
2021/05/01 11:15:16;;;;;;;;;;;14.90;85.20;;;;;;5034863;28;19935;-61
2021/05/01 11:17:46;;;;;;;;;;;14.90;85.90;;;;;;5035400;28;19925;-62
2021/05/01 11:20:14;;;;;;;;;;;14.90;86.30;;;;;;5034981;28;19925;-62
2021/05/01 11:22:41;;;;;;;;;;;14.90;85.60;;;;;;5034703;28;19943;-61
2021/05/01 11:25:09;;;;;;;;;;;14.90;85.60;;;;;;5034351;28;19944;-61
2021/05/01 11:27:35;;;;;;;;;;;14.90;85.60;;;;;;5035097;28;19925;-61
2021/05/01 11:30:02;;;;;;;;;;;14.90;85.80;;;;;;5034764;28;19936;-60
2021/05/01 11:32:29;;;;;;;;;;;15.00;85.70;;;;;;5034986;28;19925;-61
2021/05/01 11:35:00;;;;;;;;;;;15.10;85.50;;;;;;5034842;28;20048;-61
2021/05/01 11:37:27;;;;;;;;;;;15.10;85.40;;;;;;5034269;28;19929;-62
2021/05/01 11:39:53;;;;;;;;;;;15.20;85.70;;;;;;5034191;28;20148;-61
2021/05/01 11:42:23;;;;;;;;;;;15.30;85.80;;;;;;5034561;28;19936;-62
2021/05/01 11:44:50;;;;;;;;;;;15.40;85.80;;;;;;5034940;28;20323;-61
2021/05/01 11:47:18;;;;;;;;;;;15.50;86.00;;;;;;5034093;28;19936;-62
2021/05/01 11:49:45;;;;;;;;;;;15.60;85.70;;;;;;5027051;28;19926;-62
2021/05/01 11:52:18;;;;;;;;;;;15.60;83.60;;;;;;5029092;28;19936;-62
2021/05/01 11:55:06;;;;;;;;;;;15.70;83.60;;;;;;5034305;28;19925;-61
2021/05/01 11:57:36;;;;;;;;;;;15.60;82.70;;;;;;5030393;28;20509;-61
2021/05/01 12:00:04;;;;;;;;;;;15.50;82.40;;;;;;5028556;28;19925;-62
2021/05/01 12:02:37;;;;;;;;;;;15.50;83.20;;;;;;5033927;28;19925;-62
2021/05/01 12:05:06;;;;;;;;;;;15.50;82.70;;;;;;5034368;28;20284;-62
2021/05/01 12:07:34;;;;;;;;;;;15.50;82.20;;;;;;5033926;28;19959;-62
2021/05/01 12:10:03;;;;;;;;;;;15.50;82.00;;;;;;5026152;28;19925;-62
2021/05/01 12:12:30;;;;;;;;;;;15.50;82.00;;;;;;5017483;28;19933;-62
2021/05/01 12:15:01;;;;;;;;;;;15.60;81.90;;;;;;5028056;28;19944;-62
2021/05/01 12:17:29;;;;;;;;;;;15.60;81.70;;;;;;5016577;28;19930;-61
2021/05/01 12:20:04;;;;;;;;;;;15.60;82.50;;;;;;5028394;28;20312;-62
2021/05/01 12:22:32;;;;;;;;;;;15.60;81.60;;;;;;5013930;28;19925;-61
2021/05/01 12:24:58;;;;;;;;;;;15.50;80.60;;;;;;5016210;28;20399;-62
2021/05/01 12:27:44;;;;;;;;;;;15.50;80.80;;;;;;5030079;28;19925;-61
2021/05/01 12:30:33;;;;;;;;;;;15.50;81.10;;;;;;5016704;28;20364;-62
2021/05/01 12:33:21;;;;;;;;;;;15.50;81.40;;;;;;5032689;28;19933;-61
2021/05/01 12:35:48;;;;;;;;;;;15.50;81.70;;;;;;5002030;28;19930;-62
2021/05/01 12:38:15;;;;;;;;;;;15.40;81.40;;;;;;5016161;28;20266;-61
2021/05/01 12:40:42;;;;;;;;;;;15.50;81.60;;;;;;5033845;28;19936;-62
2021/05/01 12:43:23;;;;;;;;;;;15.40;81.50;;;;;;5017340;28;19979;-62
2021/05/01 12:45:49;;;;;;;;;;;15.40;81.40;;;;;;5022227;28;19925;-61
2021/05/01 12:48:31;;;;;;;;;;;15.40;80.90;;;;;;5033182;28;20619;-61
2021/05/01 12:51:10;;;;;;;;;;;15.40;80.60;;;;;;5020144;28;19926;-62
2021/05/01 12:53:37;;;;;;;;;;;15.50;80.70;;;;;;5033466;28;19983;-62
2021/05/01 12:56:17;;;;;;;;;;;15.50;80.40;;;;;;5032575;28;20081;-62
2021/05/01 12:58:43;;;;;;;;;;;15.50;79.50;;;;;;5031988;28;19925;-62
2021/05/01 13:01:23;;;;;;;;;;;15.60;79.50;;;;;;5028845;28;19936;-61
2021/05/01 13:04:08;;;;;;;;;;;15.60;79.30;;;;;;5032631;28;20195;-61
2021/05/01 13:06:35;;;;;;;;;;;15.70;79.80;;;;;;5031682;28;19925;-61
2021/05/01 13:09:03;;;;;;;;;;;15.70;80.00;;;;;;5032152;28;19925;-61
2021/05/01 13:11:29;;;;;;;;;;;15.70;79.60;;;;;;5032903;28;19961;-61
2021/05/01 13:14:11;;;;;;;;;;;15.70;79.50;;;;;;5031784;28;19925;-61
2021/05/01 13:16:52;;;;;;;;;;;15.70;80.00;;;;;;5029660;28;19963;-60
2021/05/01 13:19:18;;;;;;;;;;;15.70;80.00;;;;;;5033668;28;20279;-61
2021/05/01 13:21:45;;;;;;;;;;;15.80;79.40;;;;;;5028678;28;19936;-61
2021/05/01 13:24:14;;;;;;;;;;;15.80;78.60;;;;;;5024034;28;19925;-61
2021/05/01 13:26:41;;;;;;;;;;;15.90;78.90;;;;;;5032582;28;19925;-61
2021/05/01 13:29:08;;;;;;;;;;;16.00;78.20;;;;;;5032900;28;19925;-61
2021/05/01 13:31:34;;;;;;;;;;;16.00;78.10;;;;;;5032771;28;19935;-59
2021/05/01 13:34:01;;;;;;;;;;;16.10;78.20;;;;;;5032817;28;19936;-60
2021/05/01 13:36:28;;;;;;;;;;;16.10;78.30;;;;;;5032464;28;19929;-61
2021/05/01 13:38:54;;;;;;;;;;;16.20;77.20;;;;;;5032757;28;19956;-61
2021/05/01 13:41:22;;;;;;;;;;;16.20;77.20;;;;;;5032939;28;19929;-61
2021/05/01 13:43:52;;;;;;;;;;;16.30;77.50;;;;;;5032629;28;19929;-61
2021/05/01 13:46:20;;;;;;;;;;;16.30;76.70;;;;;;5036568;28;19925;-62
2021/05/01 13:48:47;;;;;;;;;;;16.20;76.70;;;;;;5036554;28;19929;-61
2021/05/01 13:51:14;;;;;;;;;;;16.20;75.40;;;;;;5023597;28;19936;-61
2021/05/01 13:53:40;;;;;;;;;;;16.20;75.50;;;;;;5036489;28;19929;-61
2021/05/01 13:56:07;;;;;;;;;;;16.20;75.40;;;;;;5036773;28;19933;-61
2021/05/01 13:58:34;;;;;;;;;;;16.20;75.20;;;;;;5036392;28;19982;-61
2021/05/01 14:01:00;;;;;;;;;;;16.20;74.90;;;;;;5031126;28;19929;-60
2021/05/01 14:03:30;;;;;;;;;;;16.30;75.00;;;;;;5036672;28;20371;-61
2021/05/01 14:05:56;;;;;;;;;;;16.30;75.70;;;;;;5036290;28;19925;-62
2021/05/01 14:08:23;;;;;;;;;;;16.30;76.00;;;;;;5036472;28;19929;-61
2021/05/01 14:10:51;;;;;;;;;;;16.30;76.20;;;;;;5028165;28;19944;-61
2021/05/01 14:13:18;;;;;;;;;;;16.40;75.80;;;;;;5031699;28;19984;-60
2021/05/01 14:15:46;;;;;;;;;;;16.40;75.60;;;;;;5036045;28;19925;-60
2021/05/01 14:18:13;;;;;;;;;;;16.40;75.40;;;;;;5036234;28;19951;-61
2021/05/01 14:20:40;;;;;;;;;;;16.40;75.40;;;;;;5035922;28;19983;-60